Time;durP1;ratioP1;P1;durP2;ratioP2;P2;SDS_P1;SDS_P2;PMS_P1;PMS_P2;Temp;Humidity;BMP_temperature;BMP_pressure;BME280_temperature;BME280_humidity;BME280_pressure;Samples;Min_cycle;Max_cycle;Signal;HPM_P1;HPM_P2
2021/12/20 00:01:27;;;;;;;1.65;1.27;;;22.30;50.10;;;;;;5099054;28;20036;-68
2021/12/20 00:03:53;;;;;;;1.40;1.30;;;22.20;49.90;;;;;;5098782;28;20139;-70
2021/12/20 00:06:19;;;;;;;1.45;1.35;;;22.40;50.00;;;;;;5099090;28;20066;-69
2021/12/20 00:08:45;;;;;;;1.52;1.15;;;22.40;49.80;;;;;;5098738;28;20068;-69
2021/12/20 00:11:11;;;;;;;1.75;1.65;;;22.40;49.70;;;;;;5098769;28;20044;-69
2021/12/20 00:13:38;;;;;;;1.88;1.17;;;22.40;49.70;;;;;;5098722;28;20108;-69
2021/12/20 00:16:04;;;;;;;1.92;1.40;;;22.40;49.70;;;;;;5098705;28;20056;-68
2021/12/20 00:18:30;;;;;;;1.98;1.38;;;22.40;49.80;;;;;;5098454;28;20036;-68
2021/12/20 00:20:56;;;;;;;2.03;1.10;;;22.40;50.00;;;;;;5098797;28;20040;-69
2021/12/20 00:23:22;;;;;;;1.50;1.40;;;22.30;49.90;;;;;;5098669;28;20078;-69
2021/12/20 00:25:48;;;;;;;1.40;1.30;;;22.40;50.00;;;;;;5098515;28;20079;-69
2021/12/20 00:28:16;;;;;;;3.55;1.40;;;22.30;50.00;;;;;;5098349;28;20047;-70
2021/12/20 00:30:43;;;;;;;2.97;1.50;;;22.20;50.00;;;;;;5098221;28;20056;-69
2021/12/20 00:33:09;;;;;;;1.85;1.23;;;22.20;50.10;;;;;;5098344;28;20108;-69
2021/12/20 00:35:35;;;;;;;1.40;1.30;;;22.20;50.10;;;;;;5098361;28;20055;-69
2021/12/20 00:40:47;;;;;;;2.65;1.48;;;22.20;50.20;;;;;;5098214;28;20044;-69
2021/12/20 00:43:13;;;;;;;1.25;1.13;;;22.00;50.00;;;;;;5098023;28;20048;-69
2021/12/20 00:45:39;;;;;;;1.70;1.60;;;22.20;50.20;;;;;;5098056;28;20060;-69
2021/12/20 00:48:06;;;;;;;1.20;1.10;;;22.30;50.10;;;;;;5097978;28;20066;-69
2021/12/20 00:50:32;;;;;;;1.17;1.00;;;22.10;49.80;;;;;;5098141;28;20094;-69
2021/12/20 00:52:58;;;;;;;3.28;1.10;;;22.20;49.80;;;;;;5097671;28;20048;-68
2021/12/20 00:55:26;;;;;;;0.88;0.80;;;22.30;50.10;;;;;;5097973;28;20048;-69
2021/12/20 00:57:54;;;;;;;1.25;1.00;;;22.20;49.80;;;;;;5097836;28;20044;-69
2021/12/20 01:00:26;;;;;;;1.02;1.00;;;22.40;49.70;;;;;;5097465;28;20124;-69
2021/12/20 01:02:53;;;;;;;1.23;0.77;;;22.40;49.50;;;;;;5097989;28;20139;-70
2021/12/20 01:05:21;;;;;;;0.80;0.70;;;22.40;49.60;;;;;;5097712;28;20107;-69
2021/12/20 01:07:48;;;;;;;0.68;0.68;;;22.50;49.20;;;;;;5097566;28;20044;-69
2021/12/20 01:10:15;;;;;;;0.70;0.70;;;22.50;49.20;;;;;;5097726;28;20087;-69
2021/12/20 01:12:47;;;;;;;0.70;0.70;;;22.50;48.80;;;;;;5097711;28;20040;-69
2021/12/20 01:15:23;;;;;;;0.50;0.50;;;22.60;49.10;;;;;;5097421;28;20071;-69
2021/12/20 01:17:50;;;;;;;0.75;0.75;;;22.50;49.20;;;;;;5097526;28;20032;-69
2021/12/20 01:20:17;;;;;;;0.50;0.50;;;22.60;49.10;;;;;;5097622;28;20048;-69
2021/12/20 01:22:44;;;;;;;1.00;0.90;;;22.50;48.90;;;;;;5094430;28;20040;-69
2021/12/20 01:25:11;;;;;;;0.85;0.80;;;22.40;48.60;;;;;;5096918;28;20096;-69
2021/12/20 01:27:37;;;;;;;1.45;0.90;;;22.50;48.30;;;;;;5097207;28;20098;-70
2021/12/20 01:30:07;;;;;;;0.57;0.57;;;22.40;48.80;;;;;;5097378;28;20074;-70
2021/12/20 01:32:33;;;;;;;0.70;0.70;;;22.30;49.70;;;;;;5097253;28;20052;-69
2021/12/20 01:34:59;;;;;;;0.50;0.50;;;22.30;48.90;;;;;;5096975;28;20048;-70
2021/12/20 01:37:25;;;;;;;0.57;0.57;;;22.40;49.50;;;;;;5097426;28;20037;-70
2021/12/20 01:39:53;;;;;;;1.10;0.80;;;22.30;49.60;;;;;;5096929;28;20054;-70
2021/12/20 01:42:20;;;;;;;1.10;0.60;;;22.20;49.50;;;;;;5097083;28;20044;-69
2021/12/20 01:44:49;;;;;;;0.55;0.55;;;22.30;49.70;;;;;;5096871;28;20104;-70
2021/12/20 01:47:16;;;;;;;0.50;0.50;;;22.20;49.60;;;;;;5097080;28;20100;-69
2021/12/20 01:49:56;;;;;;;0.73;0.68;;;22.40;49.70;;;;;;5096825;28;20043;-70
2021/12/20 01:52:26;;;;;;;0.40;0.40;;;22.30;49.70;;;;;;5097036;28;20036;-69
2021/12/20 01:54:53;;;;;;;0.52;0.47;;;22.40;49.80;;;;;;5096680;28;20052;-69
2021/12/20 01:57:21;;;;;;;0.43;0.40;;;22.40;49.70;;;;;;5096864;28;20043;-69
2021/12/20 01:59:47;;;;;;;0.60;0.60;;;22.40;49.80;;;;;;5096806;28;20048;-69
2021/12/20 02:02:13;;;;;;;0.45;0.45;;;22.30;49.70;;;;;;5096842;28;20036;-69
2021/12/20 02:04:46;;;;;;;0.50;0.50;;;22.40;49.70;;;;;;5096742;28;20100;-69
2021/12/20 02:07:31;;;;;;;0.60;0.60;;;22.30;49.80;;;;;;5096882;28;20044;-68
2021/12/20 02:09:57;;;;;;;0.50;0.50;;;22.30;49.80;;;;;;5096590;28;20122;-68
2021/12/20 02:12:23;;;;;;;1.55;0.93;;;22.30;49.80;;;;;;5096786;28;20040;-69
2021/12/20 02:14:49;;;;;;;0.68;0.68;;;22.20;49.90;;;;;;5096570;28;20040;-69
2021/12/20 02:17:15;;;;;;;0.85;0.85;;;22.20;50.00;;;;;;5096353;28;20086;-69
2021/12/20 02:19:41;;;;;;;0.80;0.75;;;22.10;50.00;;;;;;5096569;28;20049;-69
2021/12/20 02:22:08;;;;;;;1.85;0.80;;;22.10;50.20;;;;;;5096682;28;20233;-70
2021/12/20 02:24:34;;;;;;;3.60;0.73;;;22.00;49.80;;;;;;5096462;28;20047;-69
2021/12/20 02:27:00;;;;;;;2.17;0.70;;;22.10;50.20;;;;;;5096720;28;20037;-69
2021/12/20 02:29:42;;;;;;;1.05;0.70;;;22.00;50.00;;;;;;5096533;28;20048;-69
2021/12/20 02:37:38;;;;;;;1.38;0.68;;;22.00;50.00;;;;;;5100736;28;20044;-69
2021/12/20 02:40:05;;;;;;;1.10;0.70;;;22.20;49.80;;;;;;5100387;28;20037;-70
2021/12/20 02:42:37;;;;;;;0.73;0.65;;;22.20;49.60;;;;;;5100482;28;20053;-70
2021/12/20 02:45:15;;;;;;;0.67;0.67;;;22.20;49.80;;;;;;5100324;28;20060;-69
2021/12/20 02:47:46;;;;;;;0.75;0.70;;;22.20;49.90;;;;;;5100501;28;20362;-69
2021/12/20 02:50:13;;;;;;;0.68;0.68;;;22.20;49.50;;;;;;5100320;28;20044;-69
2021/12/20 02:52:40;;;;;;;1.30;0.65;;;22.20;49.90;;;;;;5100038;28;20062;-69
2021/12/20 02:55:09;;;;;;;1.63;1.17;;;22.10;49.90;;;;;;5100210;28;20044;-68
2021/12/20 02:57:36;;;;;;;1.02;0.70;;;22.10;49.90;;;;;;5100204;28;20036;-69
2021/12/20 03:00:06;;;;;;;0.93;0.70;;;22.10;49.90;;;;;;5100065;28;20100;-69
2021/12/20 03:02:32;;;;;;;1.02;0.77;;;22.10;50.00;;;;;;5100125;28;20071;-70
2021/12/20 03:04:58;;;;;;;1.42;0.77;;;22.10;50.00;;;;;;5100118;28;20048;-70
2021/12/20 03:07:26;;;;;;;0.95;0.80;;;21.90;50.10;;;;;;5099969;28;20064;-68
2021/12/20 03:10:00;;;;;;;1.25;0.85;;;22.00;50.20;;;;;;5100033;28;20055;-69
2021/12/20 03:12:28;;;;;;;0.70;0.70;;;22.00;50.00;;;;;;5099936;28;20052;-68
2021/12/20 03:15:01;;;;;;;0.50;0.50;;;22.10;50.10;;;;;;5099540;28;20044;-69
2021/12/20 03:17:28;;;;;;;1.15;0.63;;;22.10;50.00;;;;;;5100062;28;20048;-69
2021/12/20 03:19:54;;;;;;;0.77;0.77;;;21.90;50.00;;;;;;5099737;28;20062;-70
2021/12/20 03:22:20;;;;;;;0.90;0.75;;;22.00;49.90;;;;;;5099597;28;20044;-69
2021/12/20 03:24:47;;;;;;;1.23;0.45;;;22.10;50.00;;;;;;5099819;28;20096;-69
2021/12/20 03:27:13;;;;;;;0.93;0.55;;;22.00;50.10;;;;;;5099669;28;20036;-69
2021/12/20 03:29:40;;;;;;;0.93;0.77;;;22.00;50.20;;;;;;5099770;28;20059;-69
2021/12/20 03:32:06;;;;;;;0.80;0.80;;;21.90;50.20;;;;;;5098078;28;20075;-69
2021/12/20 03:34:33;;;;;;;0.70;0.70;;;21.90;50.30;;;;;;5098113;28;20059;-68
2021/12/20 03:36:59;;;;;;;0.60;0.60;;;21.90;50.10;;;;;;5098429;28;20108;-68
2021/12/20 03:39:25;;;;;;;0.55;0.55;;;21.90;50.10;;;;;;5098338;28;20056;-66
2021/12/20 03:41:51;;;;;;;0.57;0.57;;;21.90;50.20;;;;;;5098086;28;20040;-68
2021/12/20 03:44:17;;;;;;;0.35;0.35;;;21.90;50.10;;;;;;5098097;28;20098;-68
2021/12/20 03:46:44;;;;;;;0.73;0.70;;;21.90;50.20;;;;;;5097982;28;20063;-68
2021/12/20 03:49:09;;;;;;;1.20;0.70;;;21.80;50.20;;;;;;5098088;28;20047;-69
2021/12/20 03:51:36;;;;;;;0.52;0.52;;;21.80;50.50;;;;;;5098233;28;20111;-68
2021/12/20 03:54:05;;;;;;;0.80;0.57;;;21.70;50.40;;;;;;5097909;28;20045;-69
2021/12/20 03:56:31;;;;;;;0.68;0.68;;;21.80;50.50;;;;;;5097874;28;20048;-68
2021/12/20 03:58:57;;;;;;;1.27;1.15;;;21.60;50.40;;;;;;5098103;28;20090;-69
2021/12/20 04:01:25;;;;;;;0.90;0.80;;;21.60;50.40;;;;;;5097983;28;20041;-69
2021/12/20 04:03:51;;;;;;;0.63;0.63;;;21.60;50.60;;;;;;5097525;28;20037;-69
2021/12/20 04:06:17;;;;;;;0.68;0.68;;;21.70;50.60;;;;;;5097152;28;20044;-69
2021/12/20 04:08:43;;;;;;;0.60;0.60;;;21.60;50.50;;;;;;5097955;28;20044;-69
2021/12/20 04:11:10;;;;;;;1.15;0.70;;;21.50;50.60;;;;;;5097761;28;20079;-69
2021/12/20 04:13:37;;;;;;;0.90;0.88;;;21.40;50.70;;;;;;5097679;28;20123;-68
2021/12/20 04:16:03;;;;;;;0.60;0.60;;;21.40;50.80;;;;;;5097630;28;20056;-68
2021/12/20 04:18:30;;;;;;;0.73;0.73;;;21.40;50.80;;;;;;5097669;28;20064;-69
2021/12/20 04:20:57;;;;;;;1.17;0.95;;;21.40;50.70;;;;;;5097726;28;20048;-69
2021/12/20 04:23:23;;;;;;;0.80;0.60;;;21.30;50.70;;;;;;5097306;28;20036;-68
2021/12/20 04:25:49;;;;;;;1.05;0.88;;;21.40;50.70;;;;;;5097743;28;20033;-69
2021/12/20 04:28:16;;;;;;;0.80;0.70;;;21.30;50.70;;;;;;5097531;28;20083;-68
2021/12/20 04:30:42;;;;;;;1.88;1.00;;;21.30;50.60;;;;;;5055831;28;1173399;-69
2021/12/20 04:33:08;;;;;;;1.13;0.70;;;21.30;50.60;;;;;;5083194;28;20073;-69
2021/12/20 04:35:34;;;;;;;0.82;0.80;;;21.30;50.90;;;;;;5078222;28;20103;-68
2021/12/20 04:38:02;;;;;;;1.13;0.80;;;21.40;50.60;;;;;;5078215;28;20101;-69
2021/12/20 04:40:28;;;;;;;2.33;1.05;;;21.50;50.30;;;;;;5078342;28;20052;-69
2021/12/20 04:42:57;;;;;;;0.80;0.80;;;21.70;50.00;;;;;;5078011;28;20040;-69
2021/12/20 04:45:25;;;;;;;1.20;0.90;;;21.70;49.60;;;;;;5077973;28;20104;-69
2021/12/20 04:47:51;;;;;;;1.30;0.90;;;21.90;49.50;;;;;;5078275;28;20048;-69
2021/12/20 04:50:18;;;;;;;1.90;1.52;;;21.90;49.50;;;;;;5060322;28;20044;-69
2021/12/20 04:52:45;;;;;;;2.17;1.40;;;21.80;49.60;;;;;;5077924;28;20136;-69
2021/12/20 04:55:12;;;;;;;2.03;1.00;;;21.80;49.70;;;;;;5077594;28;20041;-69
2021/12/20 04:57:39;;;;;;;0.90;0.90;;;21.80;49.90;;;;;;5077436;28;20053;-69
2021/12/20 05:00:09;;;;;;;1.08;0.80;;;21.60;49.90;;;;;;5077203;28;20144;-68
2021/12/20 05:02:35;;;;;;;1.10;1.00;;;21.70;50.20;;;;;;5077057;28;20047;-69
2021/12/20 05:05:03;;;;;;;1.60;0.93;;;21.60;50.40;;;;;;5077023;28;20052;-70
2021/12/20 05:07:29;;;;;;;2.58;0.80;;;21.70;50.50;;;;;;5077133;28;20041;-69
2021/12/20 05:09:59;;;;;;;1.98;0.77;;;21.70;50.10;;;;;;5077070;28;20064;-70
2021/12/20 05:12:25;;;;;;;1.40;0.90;;;21.90;49.90;;;;;;5076981;28;20060;-69
2021/12/20 05:14:52;;;;;;;3.88;1.70;;;22.00;49.70;;;;;;5076678;28;20045;-68
2021/12/20 05:17:18;;;;;;;1.73;1.42;;;21.90;49.70;;;;;;5089004;28;20048;-69
2021/12/20 05:19:44;;;;;;;1.85;1.10;;;22.00;49.60;;;;;;5096670;28;20071;-69
2021/12/20 05:22:11;;;;;;;0.82;0.80;;;21.80;49.70;;;;;;5096884;28;20060;-69
2021/12/20 05:24:39;;;;;;;1.48;1.10;;;21.70;49.90;;;;;;5096656;28;20062;-70
2021/12/20 05:27:05;;;;;;;2.33;1.60;;;21.70;50.00;;;;;;5096473;28;20052;-70
2021/12/20 05:29:31;;;;;;;1.70;1.35;;;21.90;50.20;;;;;;5096529;28;20493;-69
2021/12/20 05:31:58;;;;;;;4.45;1.92;;;22.00;50.10;;;;;;5096387;28;20056;-70
2021/12/20 05:34:24;;;;;;;2.67;1.80;;;22.10;49.90;;;;;;5096372;28;20038;-69
2021/12/20 05:36:50;;;;;;;3.90;1.65;;;22.20;49.50;;;;;;5096554;28;20045;-69
2021/12/20 05:39:17;;;;;;;3.15;2.08;;;22.40;52.50;;;;;;5096223;28;20028;-69
2021/12/20 05:41:42;;;;;;;2.72;2.10;;;22.50;55.00;;;;;;5096503;28;20063;-69
2021/12/20 05:44:09;;;;;;;3.10;1.88;;;22.90;57.50;;;;;;5095641;28;20055;-69
2021/12/20 05:46:35;;;;;;;2.33;1.85;;;22.70;56.20;;;;;;5096669;28;20043;-70
2021/12/20 05:49:01;;;;;;;6.18;2.67;;;22.80;58.80;;;;;;5095916;28;20111;-70
2021/12/20 05:51:28;;;;;;;2.15;1.60;;;22.90;51.70;;;;;;5096357;28;20044;-70
2021/12/20 05:53:54;;;;;;;1.30;1.02;;;23.00;50.00;;;;;;5096154;28;20045;-69
2021/12/20 05:56:20;;;;;;;3.85;1.45;;;22.90;47.50;;;;;;5096253;28;20100;-69
2021/12/20 05:58:46;;;;;;;1.73;1.40;;;22.90;46.20;;;;;;5096332;28;20044;-70
2021/12/20 06:01:12;;;;;;;5.15;1.88;;;22.80;45.80;;;;;;5096117;28;20052;-70
2021/12/20 06:03:38;;;;;;;2.15;1.92;;;22.90;45.20;;;;;;5096077;28;20075;-69
2021/12/20 06:06:04;;;;;;;3.60;2.13;;;22.80;43.90;;;;;;5094293;28;20025;-71
2021/12/20 06:08:30;;;;;;;2.17;1.92;;;22.80;43.00;;;;;;5077152;28;20149;-69
2021/12/20 06:10:56;;;;;;;2.20;1.55;;;22.80;42.50;;;;;;5075979;28;20041;-69
2021/12/20 06:13:23;;;;;;;1.63;1.40;;;22.80;42.40;;;;;;5076142;28;20508;-69
2021/12/20 06:15:49;;;;;;;4.07;1.85;;;22.60;42.50;;;;;;5075580;28;20200;-69
2021/12/20 06:18:15;;;;;;;1.85;1.55;;;22.80;43.00;;;;;;5096111;28;20049;-69
2021/12/20 06:20:44;;;;;;;1.50;1.40;;;22.90;43.50;;;;;;5096066;28;20041;-69
2021/12/20 06:23:11;;;;;;;2.63;1.95;;;22.70;44.00;;;;;;5094974;28;20074;-69
2021/12/20 06:25:40;;;;;;;7.35;4.00;;;22.90;44.60;;;;;;5095798;28;20044;-70
2021/12/20 06:28:06;;;;;;;12.10;5.43;;;22.80;44.90;;;;;;5096086;28;20068;-70
2021/12/20 06:30:36;;;;;;;6.95;3.42;;;22.80;45.50;;;;;;5094947;28;20040;-70
2021/12/20 06:33:02;;;;;;;3.33;2.40;;;22.70;46.30;;;;;;5095944;28;20084;-70
2021/12/20 06:35:28;;;;;;;2.42;1.73;;;22.50;46.80;;;;;;5095471;28;20044;-70
2021/12/20 06:38:01;;;;;;;3.90;2.20;;;22.80;46.90;;;;;;5095785;28;20057;-70
2021/12/20 06:40:30;;;;;;;3.40;1.95;;;22.80;46.80;;;;;;5095797;28;20040;-70
2021/12/20 06:42:56;;;;;;;2.83;2.28;;;22.90;46.80;;;;;;5095832;28;20055;-69
2021/12/20 06:45:22;;;;;;;2.65;1.85;;;22.80;46.50;;;;;;5095342;28;20155;-69
2021/12/20 06:47:49;;;;;;;2.15;1.95;;;22.70;46.80;;;;;;5095317;28;20036;-69
2021/12/20 06:50:15;;;;;;;3.08;2.33;;;22.60;47.50;;;;;;5095737;28;20053;-69
2021/12/20 06:52:41;;;;;;;3.58;2.53;;;22.50;48.90;;;;;;5095553;28;20032;-68
2021/12/20 06:55:09;;;;;;;2.97;2.63;;;22.30;49.60;;;;;;5095360;28;20070;-69
2021/12/20 06:57:35;;;;;;;3.53;1.80;;;22.20;50.00;;;;;;5095607;28;20051;-69
2021/12/20 07:00:03;;;;;;;2.90;2.00;;;22.10;50.10;;;;;;5095754;28;20100;-70
2021/12/20 07:02:29;;;;;;;4.15;2.42;;;22.00;50.30;;;;;;5095405;28;20041;-70
2021/12/20 07:04:56;;;;;;;7.30;2.50;;;22.00;50.60;;;;;;5095246;28;20104;-69
2021/12/20 07:07:21;;;;;;;3.58;1.90;;;22.00;50.60;;;;;;5095698;28;20048;-68
2021/12/20 07:09:47;;;;;;;6.13;1.80;;;21.90;50.60;;;;;;5095619;28;20047;-69
2021/12/20 07:12:13;;;;;;;2.92;2.22;;;22.00;52.70;;;;;;5095346;28;20049;-69
2021/12/20 07:14:41;;;;;;;4.20;1.85;;;22.00;52.20;;;;;;5095312;28;20140;-68
2021/12/20 07:17:08;;;;;;;11.57;2.40;;;22.00;52.00;;;;;;5095592;28;20078;-69
2021/12/20 07:19:34;;;;;;;3.92;2.10;;;21.90;51.90;;;;;;5095449;28;20100;-69
2021/12/20 07:22:00;;;;;;;4.53;2.30;;;21.80;51.50;;;;;;5096979;28;20041;-69
2021/12/20 07:24:26;;;;;;;6.68;3.15;;;21.90;51.40;;;;;;5099144;28;20040;-69
2021/12/20 07:26:52;;;;;;;3.80;2.25;;;21.80;51.60;;;;;;5099051;28;20051;-69
2021/12/20 07:29:18;;;;;;;4.72;2.58;;;21.90;51.80;;;;;;5098970;28;20055;-68
2021/12/20 07:31:45;;;;;;;3.53;2.40;;;21.70;51.70;;;;;;5098926;28;20059;-69
2021/12/20 07:34:12;;;;;;;4.38;2.67;;;21.80;51.90;;;;;;5098668;28;20617;-68
2021/12/20 07:36:38;;;;;;;3.03;2.60;;;21.70;51.80;;;;;;5097897;28;20044;-69
2021/12/20 07:39:05;;;;;;;4.13;2.53;;;21.80;52.00;;;;;;5098833;28;20048;-69
2021/12/20 07:41:32;;;;;;;4.88;2.97;;;21.70;51.90;;;;;;5096730;28;20871;-70
2021/12/20 07:43:59;;;;;;;4.78;2.40;;;21.70;52.00;;;;;;5078739;28;20067;-69
2021/12/20 07:46:25;;;;;;;4.55;2.30;;;21.60;51.90;;;;;;5078559;28;20047;-69
2021/12/20 07:48:51;;;;;;;3.22;1.95;;;21.60;51.50;;;;;;5090066;28;20052;-69
2021/12/20 07:51:18;;;;;;;4.03;2.50;;;21.80;51.70;;;;;;5098528;28;20044;-69
2021/12/20 07:53:45;;;;;;;3.17;2.15;;;21.80;50.40;;;;;;5098618;28;20044;-69
2021/12/20 07:56:12;;;;;;;4.57;2.42;;;21.80;51.70;;;;;;5098574;28;20044;-69
2021/12/20 07:58:39;;;;;;;2.90;2.13;;;21.60;51.20;;;;;;5098318;28;20055;-69
2021/12/20 08:01:05;;;;;;;2.15;1.83;;;21.90;51.40;;;;;;5098260;28;20052;-69
2021/12/20 08:03:34;;;;;;;3.05;2.25;;;22.00;51.40;;;;;;5080980;28;20024;-70
2021/12/20 08:06:00;;;;;;;2.78;2.17;;;21.90;51.20;;;;;;5098041;28;20048;-69
2021/12/20 08:08:27;;;;;;;4.07;2.58;;;21.90;51.30;;;;;;5097522;28;20044;-69
2021/12/20 08:10:54;;;;;;;2.90;1.92;;;22.10;51.50;;;;;;5080776;28;20044;-69
2021/12/20 08:13:21;;;;;;;3.45;2.00;;;22.00;51.30;;;;;;5098183;28;20048;-68
2021/12/20 08:15:47;;;;;;;2.95;2.28;;;22.00;51.10;;;;;;5097822;28;20051;-69
2021/12/20 08:18:13;;;;;;;7.32;2.80;;;22.00;50.90;;;;;;5097943;28;20036;-69
2021/12/20 08:20:40;;;;;;;5.13;2.60;;;22.10;50.60;;;;;;5097494;28;20037;-69
2021/12/20 08:23:06;;;;;;;5.25;2.13;;;22.00;50.90;;;;;;5097914;28;20044;-69
2021/12/20 08:25:32;;;;;;;4.70;2.97;;;22.10;50.80;;;;;;5097912;28;20056;-69
2021/12/20 08:27:58;;;;;;;7.85;3.28;;;22.10;50.70;;;;;;5097900;28;20044;-70
2021/12/20 08:30:25;;;;;;;4.40;2.40;;;22.10;50.90;;;;;;5097472;28;20079;-69
2021/12/20 08:32:52;;;;;;;7.95;2.90;;;22.00;50.90;;;;;;5097013;28;20070;-69
2021/12/20 08:35:19;;;;;;;5.53;2.50;;;22.10;50.90;;;;;;5096461;28;20051;-69
2021/12/20 08:37:45;;;;;;;4.65;2.22;;;22.10;51.50;;;;;;5097108;28;20032;-70
2021/12/20 08:40:16;;;;;;;3.58;2.40;;;22.10;52.20;;;;;;5097782;28;20103;-69
2021/12/20 08:42:43;;;;;;;5.18;2.58;;;22.00;48.50;;;;;;5097552;28;20066;-71
2021/12/20 08:45:11;;;;;;;3.40;1.70;;;22.00;46.40;;;;;;5097483;28;20076;-77
2021/12/20 08:47:38;;;;;;;0.82;0.75;;;21.90;52.20;;;;;;5097727;28;20044;-76
2021/12/20 08:50:11;;;;;;;4.93;2.03;;;22.10;49.10;;;;;;5097544;28;20052;-78
2021/12/20 08:52:37;;;;;;;2.00;1.60;;;22.20;44.70;;;;;;5097148;28;20040;-73
2021/12/20 08:55:05;;;;;;;2.08;1.40;;;22.30;42.30;;;;;;5097163;28;20052;-75
2021/12/20 08:57:31;;;;;;;2.00;1.05;;;22.30;41.10;;;;;;5097217;28;20046;-75
2021/12/20 08:59:57;;;;;;;1.95;1.75;;;22.40;38.70;;;;;;5097450;28;20048;-69
2021/12/20 09:02:24;;;;;;;1.63;1.45;;;22.30;35.00;;;;;;5097321;28;20040;-69
2021/12/20 09:04:50;;;;;;;3.83;1.65;;;22.20;36.80;;;;;;5096921;28;20053;-69
2021/12/20 09:07:17;;;;;;;3.03;2.28;;;22.10;33.70;;;;;;5089072;28;20057;-69
2021/12/20 09:09:46;;;;;;;3.63;1.77;;;21.80;33.80;;;;;;5076883;28;20041;-70
2021/12/20 09:12:14;;;;;;;2.78;1.80;;;21.60;37.10;;;;;;5109361;28;20114;-69
2021/12/20 09:14:42;;;;;;;3.13;1.70;;;21.50;33.60;;;;;;5075240;28;20037;-68
2021/12/20 09:17:08;;;;;;;2.60;2.08;;;21.20;40.30;;;;;;5087317;28;20047;-68
2021/12/20 09:19:36;;;;;;;0.90;0.80;;;21.30;40.70;;;;;;5096783;28;20108;-69
2021/12/20 09:22:06;;;;;;;2.60;1.98;;;21.40;41.10;;;;;;5096403;28;20024;-69
2021/12/20 09:24:33;;;;;;;0.80;0.80;;;21.60;42.00;;;;;;5096712;28;20040;-68
2021/12/20 09:27:01;;;;;;;4.53;2.00;;;21.70;41.50;;;;;;5096469;28;20060;-69
2021/12/20 09:29:27;;;;;;;2.70;2.03;;;21.80;41.60;;;;;;5096166;28;20037;-69
2021/12/20 09:31:54;;;;;;;3.53;1.88;;;21.80;41.90;;;;;;5096448;28;20397;-68
2021/12/20 09:34:21;;;;;;;5.20;1.52;;;21.70;41.90;;;;;;5096556;28;20052;-69
2021/12/20 09:36:47;;;;;;;2.65;2.42;;;21.60;41.90;;;;;;5095063;28;20044;-69
2021/12/20 09:39:16;;;;;;;5.07;2.20;;;21.70;41.90;;;;;;5096493;28;20048;-69
2021/12/20 09:44:11;;;;;;;2.17;1.58;;;21.80;41.50;;;;;;5095058;28;20052;-68
2021/12/20 09:46:39;;;;;;;1.33;1.23;;;21.80;42.10;;;;;;5096056;28;20059;-70
2021/12/20 09:49:07;;;;;;;3.00;2.28;;;21.90;38.40;;;;;;5096325;28;20044;-70
2021/12/20 09:51:35;;;;;;;2.20;1.92;;;22.20;46.00;;;;;;5095935;28;20044;-69
2021/12/20 09:54:02;;;;;;;6.55;2.40;;;22.20;41.00;;;;;;5096096;28;20040;-70
2021/12/20 09:56:29;;;;;;;1.75;1.63;;;22.40;37.40;;;;;;5096236;28;20059;-69
2021/12/20 09:58:58;;;;;;;5.57;2.40;;;22.50;33.80;;;;;;5095763;28;20044;-70
2021/12/20 10:01:27;;;;;;;3.33;2.15;;;22.50;36.00;;;;;;5096216;28;20044;-70
2021/12/20 10:03:55;;;;;;;5.10;2.30;;;22.70;34.50;;;;;;5095764;28;20036;-70
2021/12/20 10:06:22;;;;;;;4.57;2.53;;;22.60;40.90;;;;;;5095084;28;20052;-70
2021/12/20 10:09:04;;;;;;;4.18;1.85;;;22.80;45.90;;;;;;5096105;28;20057;-69
2021/12/20 10:11:31;;;;;;;5.43;2.53;;;22.70;42.00;;;;;;5096202;28;20040;-69
2021/12/20 10:14:12;;;;;;;2.88;1.35;;;22.70;42.20;;;;;;5094483;28;20108;-69
2021/12/20 10:16:41;;;;;;;2.38;1.75;;;22.70;43.10;;;;;;5095845;28;20078;-69
2021/12/20 10:19:28;;;;;;;2.70;1.92;;;22.60;41.40;;;;;;5096167;28;20056;-69
2021/12/20 10:21:56;;;;;;;2.35;1.80;;;22.60;40.30;;;;;;5095640;28;20842;-69
2021/12/20 10:24:32;;;;;;;3.15;2.25;;;22.50;41.60;;;;;;5095876;28;20071;-68
2021/12/20 10:26:59;;;;;;;2.65;2.45;;;22.60;43.00;;;;;;5095912;28;20064;-69
2021/12/20 10:29:25;;;;;;;4.43;1.83;;;22.50;42.20;;;;;;5095326;28;20074;-68
2021/12/20 10:31:53;;;;;;;3.42;2.03;;;22.50;42.10;;;;;;5095850;28;20059;-69
2021/12/20 10:34:31;;;;;;;4.32;2.20;;;22.40;41.50;;;;;;5095867;28;20120;-70
2021/12/20 10:36:59;;;;;;;5.93;3.03;;;22.50;45.10;;;;;;5095105;28;20496;-69
2021/12/20 10:39:41;;;;;;;3.42;1.77;;;22.60;45.90;;;;;;5095957;28;20040;-69
2021/12/20 10:42:25;;;;;;;2.25;2.05;;;22.70;52.10;;;;;;5095866;28;20036;-69
2021/12/20 10:45:15;;;;;;;2.78;1.70;;;22.90;48.40;;;;;;5095716;28;20051;-70
2021/12/20 10:47:42;;;;;;;2.17;1.83;;;22.90;37.90;;;;;;5095628;28;20048;-71
2021/12/20 10:50:26;;;;;;;2.05;1.65;;;23.10;36.10;;;;;;5095410;28;20949;-69
2021/12/20 10:52:54;;;;;;;1.65;1.55;;;23.10;36.70;;;;;;5095837;28;20062;-69
2021/12/20 10:55:58;;;;;;;5.03;2.45;;;23.10;34.10;;;;;;5095515;28;20094;-70
2021/12/20 10:58:39;;;;;;;2.05;1.63;;;23.20;34.10;;;;;;5099106;28;20070;-70
2021/12/20 11:02:02;;;;;;;3.35;2.78;;;23.40;36.30;;;;;;5099145;28;20047;-70
2021/12/20 11:04:20;;;;;;;1.60;1.40;;;23.40;38.90;;;;;;5099225;28;20037;-70
2021/12/20 11:09:04;;;;;;;1.50;1.30;;;23.40;34.80;;;;;;5099040;28;20108;-70
2021/12/20 11:09:47;;;;;;;2.55;1.90;;;23.40;33.10;;;;;;5099426;28;20104;-69
2021/12/20 11:12:16;;;;;;;2.10;1.48;;;23.40;33.50;;;;;;5098845;28;20062;-70
2021/12/20 11:14:46;;;;;;;5.85;2.08;;;23.40;39.30;;;;;;5099115;28;20040;-69
2021/12/20 11:17:17;;;;;;;3.53;1.80;;;23.50;40.70;;;;;;5098951;28;20039;-69
2021/12/20 11:19:47;;;;;;;2.80;1.80;;;23.40;41.40;;;;;;5098838;28;20056;-70
2021/12/20 11:22:15;;;;;;;3.45;1.77;;;23.50;42.00;;;;;;5098510;28;20088;-69
2021/12/20 11:24:50;;;;;;;5.28;1.73;;;23.50;42.40;;;;;;5099038;28;20040;-68
2021/12/20 11:27:22;;;;;;;4.82;2.15;;;23.50;39.60;;;;;;5098492;28;20102;-69
2021/12/20 11:29:50;;;;;;;3.40;1.80;;;23.30;42.30;;;;;;5097919;28;20040;-68
2021/12/20 11:32:18;;;;;;;3.65;1.80;;;23.30;41.10;;;;;;5098676;28;20052;-69
2021/12/20 11:34:45;;;;;;;3.35;1.95;;;23.40;41.70;;;;;;5098801;28;20186;-69
2021/12/20 11:37:17;;;;;;;2.65;1.60;;;23.20;45.30;;;;;;5097848;28;20037;-70
2021/12/20 11:39:45;;;;;;;2.97;2.05;;;23.10;42.60;;;;;;5098821;28;20036;-68
2021/12/20 11:42:12;;;;;;;6.78;2.13;;;23.10;44.60;;;;;;5098804;28;20052;-69
2021/12/20 11:44:40;;;;;;;2.15;1.80;;;23.20;40.30;;;;;;5097946;28;20032;-69
2021/12/20 11:47:34;;;;;;;3.58;2.00;;;23.20;44.30;;;;;;5098446;28;20071;-69
2021/12/20 11:50:09;;;;;;;3.13;1.83;;;23.10;44.20;;;;;;5098480;28;20054;-68
2021/12/20 11:52:38;;;;;;;3.15;1.73;;;23.10;42.20;;;;;;5098669;28;20052;-69
2021/12/20 11:55:35;;;;;;;3.33;1.38;;;23.10;44.20;;;;;;5098562;28;20109;-68
2021/12/20 11:58:05;;;;;;;3.08;1.50;;;23.10;43.90;;;;;;5098094;28;20064;-69
2021/12/20 12:00:37;;;;;;;4.60;1.80;;;23.00;45.00;;;;;;5097848;28;20047;-69
2021/12/20 12:03:06;;;;;;;2.03;1.30;;;23.10;42.90;;;;;;5098584;28;20066;-69
2021/12/20 12:05:41;;;;;;;1.83;1.13;;;23.10;42.90;;;;;;5098092;28;20064;-69
2021/12/20 12:08:34;;;;;;;1.60;1.30;;;23.10;43.60;;;;;;5097933;28;20044;-70
2021/12/20 12:11:09;;;;;;;1.63;1.30;;;23.20;40.70;;;;;;5097190;28;20151;-69
2021/12/20 12:13:46;;;;;;;1.38;1.20;;;23.10;43.60;;;;;;5097319;28;20086;-70
2021/12/20 12:16:31;;;;;;;3.13;1.33;;;23.00;41.50;;;;;;5097990;28;20048;-69
2021/12/20 12:18:59;;;;;;;2.08;1.27;;;22.90;42.90;;;;;;5097926;28;20068;-69
2021/12/20 12:21:36;;;;;;;2.13;1.33;;;23.00;43.40;;;;;;5097164;28;20046;-69
2021/12/20 12:24:05;;;;;;;2.22;1.55;;;23.10;43.30;;;;;;5097786;28;20048;-70
2021/12/20 12:26:44;;;;;;;2.47;1.45;;;23.00;43.10;;;;;;5096898;28;20063;-69
2021/12/20 12:29:23;;;;;;;1.80;1.10;;;22.90;42.70;;;;;;5097005;28;20063;-69
2021/12/20 12:32:00;;;;;;;1.95;1.40;;;23.00;43.90;;;;;;5097649;28;20064;-69
2021/12/20 12:34:41;;;;;;;1.52;1.23;;;23.00;41.20;;;;;;5097810;28;20070;-69
2021/12/20 12:37:35;;;;;;;2.83;1.77;;;23.10;44.20;;;;;;5097723;28;20041;-70
2021/12/20 12:40:24;;;;;;;2.90;1.63;;;23.10;45.20;;;;;;5096832;28;20036;-71
2021/12/20 12:42:57;;;;;;;1.98;1.48;;;23.10;44.40;;;;;;5096581;28;20129;-70
2021/12/20 12:45:46;;;;;;;2.03;1.50;;;23.20;45.70;;;;;;5097381;28;20040;-70
2021/12/20 12:48:31;;;;;;;4.90;2.00;;;23.20;45.10;;;;;;5097224;28;20040;-70
2021/12/20 12:51:02;;;;;;;5.38;2.05;;;23.20;45.60;;;;;;5097631;28;20100;-70
2021/12/20 12:53:44;;;;;;;2.22;1.73;;;23.10;43.00;;;;;;5094789;28;20049;-69
2021/12/20 12:56:25;;;;;;;2.55;1.98;;;23.10;45.70;;;;;;5096963;28;20044;-69
2021/12/20 12:59:14;;;;;;;2.13;1.67;;;23.10;42.60;;;;;;5079705;28;20052;-70
2021/12/20 13:01:47;;;;;;;2.10;1.30;;;23.00;45.40;;;;;;5096594;28;20097;-69
2021/12/20 13:04:13;;;;;;;1.95;1.50;;;23.00;46.30;;;;;;5097008;28;20036;-69
2021/12/20 13:06:39;;;;;;;3.22;1.95;;;23.00;45.90;;;;;;5097386;28;20108;-70